Coloma, Michigan
Current Conditions -  °F | °C
As of 10:53 AM on Friday 19 Dec 2014 (Local Time) from KBEH Reporting Station
Scattered Clouds Scattered Clouds  
Wind Chill: 24°   Ceiling: Unl
Heat Index: 31°   Visibility: 10mi
Dew Point: 23°   Wind: 7mph
Humidity: 72%   Direction: 60°ENE
Pressure: 30.29"   Gusts: NA
Location:  42.19°N, 86.31°W
Report Text: KBEH 191553Z AUTO 06006KT 10SM SCT023 M01/M05 A3029 RMK AO2 SLP264 T10061050
Loading
Personal Weather Stations






























Interactive Weather Map New forecast layout! Learn more

10-Day Weather Forecast

Advertisements
Track Severe Weather on mobile